Time;durP1;ratioP1;P1;durP2;ratioP2;P2;SDS_P1;SDS_P2;PMS_P1;PMS_P2;Temp;Humidity;BMP_temperature;BMP_pressure;BME280_temperature;BME280_humidity;BME280_pressure;Samples;Min_cycle;Max_cycle;Signal;HPM_P1;HPM_P2
2022/04/10 00:01:54;;;;;;;;;;;21.30;37.80;;;;;;6296747;27;20881;-44
2022/04/10 00:04:56;;;;;;;;;;;21.30;37.70;;;;;;6290200;28;20104;-45
2022/04/10 00:07:58;;;;;;;;;;;21.50;38.40;;;;;;6281375;28;19942;-44
2022/04/10 00:10:59;;;;;;;;;;;21.40;37.80;;;;;;6296048;27;19928;-46
2022/04/10 00:14:01;;;;;;;;;;;21.40;37.80;;;;;;6280406;28;19919;-45
2022/04/10 00:17:02;;;;;;;;;;;21.20;37.70;;;;;;6290286;27;20776;-44
2022/04/10 00:20:05;;;;;;;;;;;21.10;37.60;;;;;;6289008;28;20054;-45
2022/04/10 00:23:06;;;;;;;;;;;21.30;37.70;;;;;;6287132;28;20719;-44
2022/04/10 00:26:09;;;;;;;;;;;21.30;37.70;;;;;;6297866;27;19964;-45
2022/04/10 00:29:11;;;;;;;;;;;21.20;37.70;;;;;;6293554;27;19930;-44
2022/04/10 00:32:12;;;;;;;;;;;21.30;37.80;;;;;;6301709;27;19920;-47
2022/04/10 00:35:14;;;;;;;;;;;21.30;37.70;;;;;;6290749;28;19970;-47
2022/04/10 00:38:16;;;;;;;;;;;21.30;37.70;;;;;;6287959;28;20156;-45
2022/04/10 00:41:17;;;;;;;;;;;21.30;38.30;;;;;;6285116;28;19977;-44
2022/04/10 00:44:20;;;;;;;;;;;21.30;37.70;;;;;;6297426;28;20803;-45
2022/04/10 00:47:21;;;;;;;;;;;20.80;37.50;;;;;;6275026;28;19929;-47
2022/04/10 00:50:23;;;;;;;;;;;21.20;37.70;;;;;;6283158;28;19962;-44
2022/04/10 00:53:25;;;;;;;;;;;21.20;37.70;;;;;;6297106;28;20775;-46
2022/04/10 00:56:26;;;;;;;;;;;21.20;37.60;;;;;;6293110;27;19928;-46
2022/04/10 00:59:28;;;;;;;;;;;21.30;37.70;;;;;;6284109;28;21009;-47
2022/04/10 01:02:29;;;;;;;;;;;21.20;37.70;;;;;;6289182;28;20798;-45
2022/04/10 01:05:33;;;;;;;;;;;21.30;37.70;;;;;;6294033;28;19927;-44
2022/04/10 01:08:34;;;;;;;;;;;21.00;37.60;;;;;;6279754;27;20050;-45
2022/04/10 01:11:36;;;;;;;;;;;21.20;37.70;;;;;;6274041;28;20467;-45
2022/04/10 01:14:38;;;;;;;;;;;21.20;37.70;;;;;;6275625;27;20881;-45
2022/04/10 01:17:43;;;;;;;;;;;21.00;37.60;;;;;;6267793;28;19959;-46
2022/04/10 01:20:46;;;;;;;;;;;21.30;37.70;;;;;;6281169;27;20285;-43
2022/04/10 01:23:49;;;;;;;;;;;21.30;37.70;;;;;;6273676;28;20794;-43
2022/04/10 01:26:50;;;;;;;;;;;21.20;37.60;;;;;;6286814;27;20523;-44
2022/04/10 01:29:56;;;;;;;;;;;21.10;37.60;;;;;;6261166;28;20802;-44
2022/04/10 01:32:57;;;;;;;;;;;21.10;37.70;;;;;;6267659;28;19927;-46
2022/04/10 01:35:59;;;;;;;;;;;21.20;37.70;;;;;;6284040;27;20478;-46
2022/04/10 01:39:02;;;;;;;;;;;21.10;37.60;;;;;;6292909;27;19934;-44
2022/04/10 01:42:06;;;;;;;;;;;21.10;37.60;;;;;;6290410;27;20435;-45
2022/04/10 01:45:08;;;;;;;;;;;21.10;37.60;;;;;;6275871;27;19942;-43
2022/04/10 01:48:10;;;;;;;;;;;21.00;37.60;;;;;;6273236;28;20979;-46
2022/04/10 01:51:12;;;;;;;;;;;21.10;37.60;;;;;;6266477;28;20265;-44
2022/04/10 01:54:14;;;;;;;;;;;21.10;37.60;;;;;;6252497;28;20042;-44
2022/04/10 01:57:16;;;;;;;;;;;21.10;37.60;;;;;;6278495;28;20120;-44
2022/04/10 02:00:17;;;;;;;;;;;21.00;37.60;;;;;;6273968;28;21300;-43
2022/04/10 02:03:20;;;;;;;;;;;21.00;37.60;;;;;;6284800;28;20218;-44
2022/04/10 02:06:22;;;;;;;;;;;21.20;37.60;;;;;;6294636;27;20122;-43
2022/04/10 02:09:26;;;;;;;;;;;21.00;37.60;;;;;;6296118;28;19924;-43
2022/04/10 02:12:28;;;;;;;;;;;21.00;37.60;;;;;;6280742;28;20551;-44
2022/04/10 02:15:31;;;;;;;;;;;21.00;37.60;;;;;;6289092;27;20540;-45
2022/04/10 02:18:33;;;;;;;;;;;20.90;37.50;;;;;;6274101;27;19970;-44
2022/04/10 02:21:35;;;;;;;;;;;21.00;37.60;;;;;;6277170;28;19997;-44
2022/04/10 02:24:37;;;;;;;;;;;21.10;37.60;;;;;;6282437;28;19927;-43
2022/04/10 02:27:39;;;;;;;;;;;21.00;37.60;;;;;;6287067;27;20496;-44
2022/04/10 02:30:40;;;;;;;;;;;21.00;37.60;;;;;;6285208;27;20121;-44
2022/04/10 02:33:42;;;;;;;;;;;20.90;37.50;;;;;;6286179;28;20317;-43
2022/04/10 02:36:43;;;;;;;;;;;20.90;37.60;;;;;;6293748;27;19931;-45
2022/04/10 02:39:45;;;;;;;;;;;20.80;37.50;;;;;;6281948;28;20559;-45
2022/04/10 02:42:47;;;;;;;;;;;20.90;37.50;;;;;;6277191;28;20155;-43
2022/04/10 02:45:49;;;;;;;;;;;20.90;37.50;;;;;;6275522;28;20481;-44
2022/04/10 02:48:50;;;;;;;;;;;21.00;37.60;;;;;;6297184;27;19931;-46
2022/04/10 02:51:54;;;;;;;;;;;21.00;37.60;;;;;;6289615;27;19989;-44
2022/04/10 02:54:56;;;;;;;;;;;20.90;37.50;;;;;;6271899;28;20102;-45
2022/04/10 02:57:58;;;;;;;;;;;20.90;37.50;;;;;;6278125;28;20403;-46
2022/04/10 03:00:59;;;;;;;;;;;20.90;37.50;;;;;;6273627;28;19984;-44
2022/04/10 03:04:02;;;;;;;;;;;20.90;37.50;;;;;;6290146;27;20341;-46
2022/04/10 03:07:04;;;;;;;;;;;20.80;37.50;;;;;;6279174;28;19934;-44
2022/04/10 03:10:06;;;;;;;;;;;20.90;37.50;;;;;;6281090;28;20233;-44
2022/04/10 03:13:08;;;;;;;;;;;20.70;37.40;;;;;;6280381;28;20223;-43
2022/04/10 03:16:09;;;;;;;;;;;20.80;37.50;;;;;;6277620;28;20172;-43
2022/04/10 03:19:11;;;;;;;;;;;20.90;37.50;;;;;;6281736;28;19927;-46
2022/04/10 03:22:12;;;;;;;;;;;20.80;37.50;;;;;;6287464;27;20168;-43
2022/04/10 03:25:14;;;;;;;;;;;20.70;37.40;;;;;;6267369;28;20138;-43
2022/04/10 03:28:17;;;;;;;;;;;20.80;37.50;;;;;;6255471;28;20035;-44
2022/04/10 03:31:20;;;;;;;;;;;20.80;37.50;;;;;;6281961;28;20427;-44
2022/04/10 03:34:22;;;;;;;;;;;20.50;37.40;;;;;;6250289;28;20034;-44
2022/04/10 03:37:24;;;;;;;;;;;20.60;37.40;;;;;;6288714;27;19927;-43
2022/04/10 03:40:27;;;;;;;;;;;20.90;37.50;;;;;;6275331;28;19924;-44
2022/04/10 03:43:29;;;;;;;;;;;20.70;37.40;;;;;;6281648;27;19933;-43
2022/04/10 03:46:31;;;;;;;;;;;20.70;37.50;;;;;;6276378;27;20391;-46
2022/04/10 03:49:34;;;;;;;;;;;20.70;37.40;;;;;;6277470;27;20513;-45
2022/04/10 03:52:37;;;;;;;;;;;20.60;37.40;;;;;;6264384;28;19928;-44
2022/04/10 03:55:39;;;;;;;;;;;20.50;37.30;;;;;;6269369;28;20000;-44
2022/04/10 03:58:42;;;;;;;;;;;20.60;37.40;;;;;;6290639;28;19954;-45
2022/04/10 04:01:43;;;;;;;;;;;20.70;37.40;;;;;;6275862;28;19924;-43
2022/04/10 04:04:47;;;;;;;;;;;20.60;37.40;;;;;;6287374;27;19924;-44
2022/04/10 04:07:49;;;;;;;;;;;20.70;37.40;;;;;;6276262;28;20092;-43
2022/04/10 04:11:00;;;;;;;;;;;20.40;37.30;;;;;;6279169;28;19934;-44
2022/04/10 04:14:02;;;;;;;;;;;20.60;37.40;;;;;;6274965;28;19923;-43
2022/04/10 04:17:04;;;;;;;;;;;20.50;37.90;;;;;;6262440;27;19923;-44
2022/04/10 04:20:06;;;;;;;;;;;20.40;37.20;;;;;;6282017;27;19923;-44
2022/04/10 04:23:08;;;;;;;;;;;20.50;37.30;;;;;;6264478;28;20095;-44
2022/04/10 04:26:10;;;;;;;;;;;20.40;37.20;;;;;;6282490;27;20663;-43
2022/04/10 04:29:13;;;;;;;;;;;20.50;37.30;;;;;;6271519;28;20040;-43
2022/04/10 04:32:14;;;;;;;;;;;20.60;37.90;;;;;;6267711;27;20064;-45
2022/04/10 04:35:16;;;;;;;;;;;20.30;37.20;;;;;;6288027;27;20110;-44
2022/04/10 04:38:18;;;;;;;;;;;20.50;37.30;;;;;;6275008;28;20347;-44
2022/04/10 04:41:22;;;;;;;;;;;20.80;37.40;;;;;;6289779;27;19923;-43
2022/04/10 04:44:23;;;;;;;;;;;20.40;37.20;;;;;;6268668;28;20084;-45
2022/04/10 04:47:25;;;;;;;;;;;20.60;37.30;;;;;;6269827;28;20042;-44
2022/04/10 04:50:27;;;;;;;;;;;20.30;37.10;;;;;;6272235;27;19924;-43
2022/04/10 04:53:29;;;;;;;;;;;20.50;37.20;;;;;;6293671;27;19957;-44
2022/04/10 04:56:31;;;;;;;;;;;20.50;37.30;;;;;;6274253;28;20373;-44
2022/04/10 04:59:33;;;;;;;;;;;20.50;37.30;;;;;;6269022;28;19924;-44
2022/04/10 05:02:35;;;;;;;;;;;20.40;37.20;;;;;;6288822;27;20110;-45
2022/04/10 05:05:37;;;;;;;;;;;20.50;37.20;;;;;;6284568;27;20020;-45
2022/04/10 05:08:46;;;;;;;;;;;20.30;37.10;;;;;;6287258;28;20431;-45
2022/04/10 05:11:49;;;;;;;;;;;20.10;37.00;;;;;;6280963;27;20474;-43
2022/04/10 05:14:50;;;;;;;;;;;20.50;37.20;;;;;;6263078;28;20486;-43
2022/04/10 05:17:53;;;;;;;;;;;20.40;37.20;;;;;;6279504;27;20038;-45
2022/04/10 05:20:56;;;;;;;;;;;20.40;37.20;;;;;;6289650;27;20366;-44
2022/04/10 05:24:00;;;;;;;;;;;20.50;37.20;;;;;;6286570;27;20521;-43
2022/04/10 05:27:04;;;;;;;;;;;20.50;37.20;;;;;;6287347;27;20199;-44
2022/04/10 05:30:06;;;;;;;;;;;20.30;37.10;;;;;;6258581;28;20284;-45
2022/04/10 05:33:07;;;;;;;;;;;20.50;37.20;;;;;;6283289;28;20987;-44
2022/04/10 05:36:10;;;;;;;;;;;20.40;37.10;;;;;;6291594;27;20026;-44
2022/04/10 05:39:16;;;;;;;;;;;20.40;37.10;;;;;;6289996;27;20163;-45
2022/04/10 05:42:18;;;;;;;;;;;20.20;37.00;;;;;;6282789;27;19924;-44
2022/04/10 05:45:20;;;;;;;;;;;20.30;37.00;;;;;;6277404;27;20260;-48
2022/04/10 05:48:26;;;;;;;;;;;20.30;37.10;;;;;;6288195;27;20668;-44
2022/04/10 05:51:27;;;;;;;;;;;20.30;37.00;;;;;;6292253;27;20396;-43
2022/04/10 05:54:29;;;;;;;;;;;20.20;37.00;;;;;;6275054;27;20366;-45
2022/04/10 05:57:34;;;;;;;;;;;20.10;36.90;;;;;;6275945;27;20465;-44
2022/04/10 06:00:35;;;;;;;;;;;20.20;37.00;;;;;;6269655;27;20342;-44
2022/04/10 06:03:47;;;;;;;;;;;20.30;37.00;;;;;;6275547;28;19978;-43
2022/04/10 06:06:51;;;;;;;;;;;20.20;37.00;;;;;;6267068;28;20330;-43
2022/04/10 06:10:01;;;;;;;;;;;20.40;37.10;;;;;;6268929;28;19928;-44
2022/04/10 06:13:08;;;;;;;;;;;20.30;37.00;;;;;;6256722;27;20129;-45
2022/04/10 06:16:25;;;;;;;;;;;20.30;37.00;;;;;;6236120;27;20515;-43
2022/04/10 06:19:27;;;;;;;;;;;20.30;36.90;;;;;;6263946;27;19923;-47
2022/04/10 06:22:30;;;;;;;;;;;20.30;36.90;;;;;;6285631;27;20307;-47
2022/04/10 06:25:32;;;;;;;;;;;20.30;36.90;;;;;;6289622;27;19923;-44
2022/04/10 06:28:35;;;;;;;;;;;20.20;36.90;;;;;;6284429;28;19968;-44
2022/04/10 06:31:40;;;;;;;;;;;20.40;36.90;;;;;;6273522;27;19928;-44
2022/04/10 06:34:41;;;;;;;;;;;20.20;36.90;;;;;;6270582;28;20025;-44
2022/04/10 06:37:45;;;;;;;;;;;20.20;36.80;;;;;;6265894;28;19931;-44
2022/04/10 06:40:51;;;;;;;;;;;20.30;36.80;;;;;;6280045;28;19953;-43
2022/04/10 06:43:54;;;;;;;;;;;20.70;37.00;;;;;;6263283;28;20108;-44
2022/04/10 06:47:15;;;;;;;;;;;20.40;36.80;;;;;;6282979;27;20221;-44
2022/04/10 06:50:17;;;;;;;;;;;20.30;36.80;;;;;;6287803;27;19951;-44
2022/04/10 06:53:25;;;;;;;;;;;20.40;36.80;;;;;;6287908;27;19954;-43
2022/04/10 06:56:27;;;;;;;;;;;20.30;36.70;;;;;;6271867;27;19928;-47
2022/04/10 06:59:30;;;;;;;;;;;20.20;36.60;;;;;;6267010;28;19931;-44
2022/04/10 07:02:33;;;;;;;;;;;20.50;36.80;;;;;;6282418;27;20167;-45
2022/04/10 07:05:36;;;;;;;;;;;20.50;36.80;;;;;;6271493;27;20117;-44
2022/04/10 07:08:42;;;;;;;;;;;20.40;36.70;;;;;;6291826;27;19944;-43
2022/04/10 07:11:45;;;;;;;;;;;20.30;36.60;;;;;;6274495;27;19978;-44
2022/04/10 07:15:00;;;;;;;;;;;20.40;36.70;;;;;;6276448;28;19924;-44
2022/04/10 07:18:02;;;;;;;;;;;20.40;36.70;;;;;;6269339;28;20292;-44
2022/04/10 07:21:04;;;;;;;;;;;20.40;36.60;;;;;;6281549;27;20177;-44
2022/04/10 07:24:09;;;;;;;;;;;20.40;36.60;;;;;;6283535;27;19927;-45
2022/04/10 07:27:17;;;;;;;;;;;20.20;36.50;;;;;;6265677;27;19931;-44
2022/04/10 07:30:30;;;;;;;;;;;20.50;36.60;;;;;;6249546;27;20222;-43
2022/04/10 07:33:37;;;;;;;;;;;20.60;36.70;;;;;;6275202;27;20845;-44
2022/04/10 07:36:56;;;;;;;;;;;20.30;36.50;;;;;;6251873;28;20186;-44
2022/04/10 07:39:59;;;;;;;;;;;20.20;36.50;;;;;;6270406;27;19970;-44
2022/04/10 07:43:06;;;;;;;;;;;20.40;36.60;;;;;;6268514;28;20604;-44
2022/04/10 07:49:32;;;;;;;;;;;20.70;36.70;;;;;;6280732;27;20190;-45
2022/04/10 07:52:38;;;;;;;;;;;20.50;36.50;;;;;;6267399;28;20157;-43
2022/04/10 07:55:43;;;;;;;;;;;20.50;36.50;;;;;;6274004;28;19958;-45
2022/04/10 07:58:45;;;;;;;;;;;20.60;36.50;;;;;;6269692;28;20058;-44
2022/04/10 08:01:56;;;;;;;;;;;20.70;36.50;;;;;;6266230;28;20179;-44
2022/04/10 08:05:02;;;;;;;;;;;20.60;36.50;;;;;;6272180;28;20371;-43
2022/04/10 08:08:13;;;;;;;;;;;20.60;36.50;;;;;;6276210;28;20205;-44
2022/04/10 08:11:14;;;;;;;;;;;20.60;36.40;;;;;;6271680;28;20012;-45
2022/04/10 08:14:16;;;;;;;;;;;20.50;36.30;;;;;;6281610;27;20480;-44
2022/04/10 08:17:17;;;;;;;;;;;20.90;36.50;;;;;;6268673;27;20115;-44
2022/04/10 08:20:19;;;;;;;;;;;20.70;36.30;;;;;;6268587;28;20532;-44
2022/04/10 08:23:20;;;;;;;;;;;20.70;36.30;;;;;;6275361;28;20467;-44
2022/04/10 08:26:22;;;;;;;;;;;20.90;36.40;;;;;;6257235;27;20157;-46
2022/04/10 08:29:23;;;;;;;;;;;20.70;36.20;;;;;;6257706;28;20830;-45
2022/04/10 08:32:25;;;;;;;;;;;21.00;36.30;;;;;;6263340;28;20062;-45
2022/04/10 08:35:26;;;;;;;;;;;20.70;36.10;;;;;;6265495;28;20423;-43
2022/04/10 08:38:28;;;;;;;;;;;20.90;36.20;;;;;;6278779;27;20778;-43
2022/04/10 08:41:31;;;;;;;;;;;20.70;36.00;;;;;;6282670;28;20013;-43
2022/04/10 08:44:33;;;;;;;;;;;21.00;36.10;;;;;;6281103;27;20216;-45
2022/04/10 08:47:35;;;;;;;;;;;20.90;36.00;;;;;;6261783;28;19935;-44
2022/04/10 08:50:37;;;;;;;;;;;21.10;36.10;;;;;;6246571;27;20208;-43
2022/04/10 08:53:39;;;;;;;;;;;21.00;36.00;;;;;;6281601;27;19967;-44
2022/04/10 08:56:40;;;;;;;;;;;21.10;36.10;;;;;;6268227;27;20912;-45
2022/04/10 08:59:42;;;;;;;;;;;20.90;35.90;;;;;;6269927;27;20339;-46
2022/04/10 09:02:46;;;;;;;;;;;21.10;36.00;;;;;;6258843;28;20211;-43
2022/04/10 09:06:00;;;;;;;;;;;21.00;35.90;;;;;;6262165;28;20265;-44
2022/04/10 09:09:09;;;;;;;;;;;21.10;35.90;;;;;;6269370;27;20256;-43
2022/04/10 09:12:11;;;;;;;;;;;21.30;36.00;;;;;;6273573;27;20737;-46
2022/04/10 09:15:12;;;;;;;;;;;21.10;35.90;;;;;;6280335;27;20252;-45
2022/04/10 09:18:14;;;;;;;;;;;21.30;36.00;;;;;;6260983;27;20162;-45
2022/04/10 09:21:16;;;;;;;;;;;21.20;35.90;;;;;;6272510;28;20178;-44
2022/04/10 09:24:17;;;;;;;;;;;21.30;35.90;;;;;;6276459;27;19929;-44
2022/04/10 09:27:28;;;;;;;;;;;21.50;36.30;;;;;;6266843;28;19927;-44
2022/04/10 09:30:34;;;;;;;;;;;21.30;35.90;;;;;;6259146;27;19963;-44
2022/04/10 09:33:47;;;;;;;;;;;21.40;36.00;;;;;;6263125;28;20383;-44
2022/04/10 09:36:58;;;;;;;;;;;21.40;36.00;;;;;;6268279;27;20534;-46
2022/04/10 09:40:14;;;;;;;;;;;21.40;35.90;;;;;;6279719;27;19932;-43
2022/04/10 09:43:16;;;;;;;;;;;21.40;35.90;;;;;;6252678;27;19928;-44
2022/04/10 09:46:18;;;;;;;;;;;21.50;35.90;;;;;;6279264;27;19923;-44
2022/04/10 09:49:20;;;;;;;;;;;21.30;35.80;;;;;;6278925;27;19927;-46
2022/04/10 09:52:21;;;;;;;;;;;21.50;35.90;;;;;;6273860;27;20680;-44
2022/04/10 09:55:32;;;;;;;;;;;21.40;35.80;;;;;;6259689;28;19958;-43
2022/04/10 09:58:34;;;;;;;;;;;21.70;36.00;;;;;;6279488;27;20206;-45
2022/04/10 10:01:36;;;;;;;;;;;21.50;35.90;;;;;;6265295;27;20047;-44
2022/04/10 10:04:39;;;;;;;;;;;21.50;35.80;;;;;;6275267;27;19943;-43
2022/04/10 10:07:42;;;;;;;;;;;21.50;35.80;;;;;;6268203;27;19927;-44
2022/04/10 10:10:44;;;;;;;;;;;21.60;35.90;;;;;;6280916;27;20557;-46
2022/04/10 10:13:46;;;;;;;;;;;21.60;35.90;;;;;;6282643;27;20752;-43
2022/04/10 10:16:48;;;;;;;;;;;21.60;35.90;;;;;;6273110;28;20271;-43
2022/04/10 10:19:50;;;;;;;;;;;21.50;35.80;;;;;;6280942;27;20246;-44
2022/04/10 10:22:52;;;;;;;;;;;21.70;35.90;;;;;;6272330;28;19928;-44
2022/04/10 10:25:59;;;;;;;;;;;21.70;35.90;;;;;;6267638;28;20226;-44
2022/04/10 10:29:07;;;;;;;;;;;21.60;35.80;;;;;;6268473;28;20406;-46
2022/04/10 10:32:12;;;;;;;;;;;21.50;35.70;;;;;;6260423;28;19993;-44
2022/04/10 10:35:25;;;;;;;;;;;21.70;35.80;;;;;;6272951;27;20038;-45
2022/04/10 10:38:27;;;;;;;;;;;21.80;35.90;;;;;;6274498;27;20733;-46
2022/04/10 10:41:31;;;;;;;;;;;21.70;35.80;;;;;;6264162;28;19928;-44
2022/04/10 10:44:45;;;;;;;;;;;21.80;35.80;;;;;;6264534;28;19927;-44
2022/04/10 10:47:46;;;;;;;;;;;21.90;35.90;;;;;;6268038;28;20582;-43
2022/04/10 10:50:49;;;;;;;;;;;21.80;35.70;;;;;;6269238;28;20857;-44
2022/04/10 10:53:53;;;;;;;;;;;21.70;35.70;;;;;;6268416;28;20100;-43
2022/04/10 10:56:54;;;;;;;;;;;21.90;35.80;;;;;;6270304;28;20058;-43
2022/04/10 11:00:08;;;;;;;;;;;21.70;35.70;;;;;;6281678;27;20279;-44
2022/04/10 11:03:10;;;;;;;;;;;21.80;35.70;;;;;;6278383;27;20066;-45
2022/04/10 11:06:15;;;;;;;;;;;21.80;35.70;;;;;;6277434;27;20722;-44
2022/04/10 11:09:20;;;;;;;;;;;21.80;35.70;;;;;;6280681;27;20469;-44
2022/04/10 11:12:23;;;;;;;;;;;21.90;35.70;;;;;;6247121;28;20225;-44
2022/04/10 11:15:29;;;;;;;;;;;21.90;35.70;;;;;;6250201;28;20503;-45
2022/04/10 11:18:35;;;;;;;;;;;22.00;35.70;;;;;;6284555;27;20210;-45
2022/04/10 11:21:43;;;;;;;;;;;22.00;35.70;;;;;;6269318;27;20835;-44
2022/04/10 11:24:45;;;;;;;;;;;22.00;35.70;;;;;;6267091;27;20111;-43
2022/04/10 11:27:48;;;;;;;;;;;22.00;35.70;;;;;;6241139;27;19923;-45
2022/04/10 11:30:50;;;;;;;;;;;21.80;35.60;;;;;;6262803;28;20406;-45
2022/04/10 11:33:52;;;;;;;;;;;22.10;35.70;;;;;;6277961;28;19931;-43
2022/04/10 11:36:55;;;;;;;;;;;22.10;35.70;;;;;;6265829;27;20146;-45
2022/04/10 11:39:58;;;;;;;;;;;22.10;35.70;;;;;;6275421;27;20272;-43
2022/04/10 11:43:03;;;;;;;;;;;22.10;35.60;;;;;;6275656;28;20938;-44
2022/04/10 11:46:05;;;;;;;;;;;22.00;35.60;;;;;;6265512;28;20313;-48
2022/04/10 11:49:06;;;;;;;;;;;22.10;35.70;;;;;;6235138;28;19994;-45
2022/04/10 11:52:08;;;;;;;;;;;22.20;35.60;;;;;;6258454;28;20048;-45
2022/04/10 11:55:10;;;;;;;;;;;22.20;35.60;;;;;;6277433;27;19951;-43
2022/04/10 11:58:15;;;;;;;;;;;22.20;35.60;;;;;;6259563;27;20064;-44
2022/04/10 12:01:18;;;;;;;;;;;22.10;35.50;;;;;;6268877;27;20647;-45
2022/04/10 12:04:20;;;;;;;;;;;22.10;35.50;;;;;;6254080;28;20694;-48
2022/04/10 12:07:22;;;;;;;;;;;22.20;35.50;;;;;;6265389;28;20802;-44
2022/04/10 12:10:23;;;;;;;;;;;22.20;35.50;;;;;;6258413;28;20050;-44
2022/04/10 12:13:27;;;;;;;;;;;22.20;35.50;;;;;;6271779;27;19924;-45
2022/04/10 12:16:29;;;;;;;;;;;22.30;35.50;;;;;;6264676;28;20184;-47
2022/04/10 12:19:34;;;;;;;;;;;22.30;35.50;;;;;;6264522;28;19927;-47
2022/04/10 12:22:36;;;;;;;;;;;22.30;35.50;;;;;;6258407;28;20451;-46
2022/04/10 12:25:38;;;;;;;;;;;22.30;35.50;;;;;;6275445;28;19953;-45
2022/04/10 12:28:42;;;;;;;;;;;22.10;35.40;;;;;;6272892;27;20446;-44
2022/04/10 12:31:45;;;;;;;;;;;22.50;35.60;;;;;;6232874;27;20277;-48
2022/04/10 12:34:47;;;;;;;;;;;22.10;35.40;;;;;;6258222;27;20034;-45
2022/04/10 12:37:59;;;;;;;;;;;22.40;35.50;;;;;;6250432;28;20563;-45
2022/04/10 12:41:04;;;;;;;;;;;22.40;35.50;;;;;;6234522;28;20232;-45
2022/04/10 12:44:10;;;;;;;;;;;22.40;35.40;;;;;;6273962;27;20091;-44
2022/04/10 12:47:11;;;;;;;;;;;22.50;35.50;;;;;;6252732;28;20081;-46
2022/04/10 12:50:13;;;;;;;;;;;22.50;35.50;;;;;;6237244;28;21936;-44
2022/04/10 12:53:15;;;;;;;;;;;22.50;35.40;;;;;;6227071;28;20344;-45
2022/04/10 12:56:18;;;;;;;;;;;22.50;35.40;;;;;;6258328;27;19937;-44
2022/04/10 12:59:19;;;;;;;;;;;22.50;35.40;;;;;;6271148;27;19928;-45
2022/04/10 13:02:21;;;;;;;;;;;22.50;35.40;;;;;;6272118;27;19946;-46
2022/04/10 13:05:24;;;;;;;;;;;22.40;35.30;;;;;;6263882;27;20086;-45
2022/04/10 13:08:27;;;;;;;;;;;22.50;35.40;;;;;;6253107;27;19990;-45
2022/04/10 13:11:34;;;;;;;;;;;22.60;35.40;;;;;;6272001;27;20638;-45
2022/04/10 13:14:48;;;;;;;;;;;22.60;35.40;;;;;;6274025;27;19963;-44
2022/04/10 13:17:56;;;;;;;;;;;22.60;35.30;;;;;;6268875;27;20038;-44
2022/04/10 13:20:57;;;;;;;;;;;22.60;35.40;;;;;;6243124;28;20497;-45
2022/04/10 13:24:00;;;;;;;;;;;22.40;35.20;;;;;;6257930;28;19927;-45
2022/04/10 13:27:04;;;;;;;;;;;22.50;35.30;;;;;;6240374;28;20909;-44
2022/04/10 13:30:06;;;;;;;;;;;22.60;35.30;;;;;;6255188;28;20030;-45
2022/04/10 13:33:07;;;;;;;;;;;22.60;35.30;;;;;;6265514;27;20730;-45
2022/04/10 13:36:09;;;;;;;;;;;22.60;35.30;;;;;;6235924;28;20399;-46
2022/04/10 13:39:12;;;;;;;;;;;22.80;35.40;;;;;;6260293;27;20024;-45
2022/04/10 13:42:13;;;;;;;;;;;22.70;35.30;;;;;;6280608;27;19927;-46
2022/04/10 13:45:15;;;;;;;;;;;22.70;35.30;;;;;;6271909;28;20378;-43
2022/04/10 13:48:16;;;;;;;;;;;22.70;35.30;;;;;;6278691;27;20084;-47
2022/04/10 13:51:17;;;;;;;;;;;22.70;35.30;;;;;;6264699;28;21401;-45
2022/04/10 13:54:19;;;;;;;;;;;22.70;35.30;;;;;;6263288;27;20122;-45
2022/04/10 13:57:21;;;;;;;;;;;22.80;35.30;;;;;;6264165;27;20087;-45
2022/04/10 14:00:22;;;;;;;;;;;22.70;35.30;;;;;;6280246;27;19928;-45
2022/04/10 14:03:24;;;;;;;;;;;22.70;35.20;;;;;;6263607;28;20751;-44
2022/04/10 14:06:26;;;;;;;;;;;22.80;35.30;;;;;;6250981;27;20312;-44
2022/04/10 14:09:28;;;;;;;;;;;22.60;35.10;;;;;;6263041;27;20392;-45
2022/04/10 14:12:36;;;;;;;;;;;22.80;35.20;;;;;;6255337;28;19927;-47
2022/04/10 14:15:37;;;;;;;;;;;22.80;35.30;;;;;;6265571;27;20194;-44
2022/04/10 14:18:39;;;;;;;;;;;22.80;35.20;;;;;;6262350;27;19988;-44
2022/04/10 14:21:40;;;;;;;;;;;22.90;35.20;;;;;;6266576;27;20214;-44
2022/04/10 14:24:43;;;;;;;;;;;22.70;35.10;;;;;;6240421;28;19928;-44
2022/04/10 14:27:50;;;;;;;;;;;22.80;35.20;;;;;;6254639;28;19954;-45
2022/04/10 14:30:51;;;;;;;;;;;23.00;35.30;;;;;;6260833;28;19993;-44
2022/04/10 14:33:54;;;;;;;;;;;22.80;35.20;;;;;;6271936;27;19951;-45
2022/04/10 14:36:56;;;;;;;;;;;22.80;35.20;;;;;;6278178;27;20559;-44
2022/04/10 14:39:57;;;;;;;;;;;22.90;35.20;;;;;;6266299;27;20034;-46
2022/04/10 14:42:59;;;;;;;;;;;22.90;35.20;;;;;;6272249;27;19993;-44
2022/04/10 14:46:00;;;;;;;;;;;22.90;35.10;;;;;;6262793;27;20067;-45
2022/04/10 14:49:01;;;;;;;;;;;23.00;35.20;;;;;;6254982;28;20171;-43
2022/04/10 14:52:03;;;;;;;;;;;22.90;35.10;;;;;;6256165;27;19927;-44
2022/04/10 14:55:06;;;;;;;;;;;22.90;35.10;;;;;;6278728;27;19982;-47
2022/04/10 14:58:07;;;;;;;;;;;22.90;35.10;;;;;;6262939;27;20086;-45
2022/04/10 15:01:09;;;;;;;;;;;23.00;35.10;;;;;;6266848;27;20666;-44
2022/04/10 15:04:10;;;;;;;;;;;23.00;35.10;;;;;;6256463;28;22349;-45
2022/04/10 15:07:12;;;;;;;;;;;22.90;35.00;;;;;;6269789;28;20071;-45
2022/04/10 15:10:14;;;;;;;;;;;23.00;35.10;;;;;;6267534;27;20370;-46
2022/04/10 15:13:15;;;;;;;;;;;22.90;35.00;;;;;;6250788;27;20552;-45
2022/04/10 15:16:17;;;;;;;;;;;23.00;35.00;;;;;;6271793;27;19928;-45
2022/04/10 15:19:18;;;;;;;;;;;22.80;34.90;;;;;;6262507;28;20469;-44
2022/04/10 15:22:19;;;;;;;;;;;23.10;35.10;;;;;;6268488;27;20450;-45
2022/04/10 15:25:21;;;;;;;;;;;23.10;35.10;;;;;;6263964;27;20274;-45
2022/04/10 15:28:23;;;;;;;;;;;22.90;35.00;;;;;;6250022;28;19928;-45
2022/04/10 15:31:24;;;;;;;;;;;23.10;35.00;;;;;;6261379;27;20491;-44
2022/04/10 15:34:26;;;;;;;;;;;23.10;35.00;;;;;;6257776;27;20167;-47
2022/04/10 15:37:27;;;;;;;;;;;23.10;35.00;;;;;;6254247;27;20194;-46
2022/04/10 15:40:29;;;;;;;;;;;23.00;35.00;;;;;;6244608;27;20912;-47
2022/04/10 15:43:30;;;;;;;;;;;23.00;35.00;;;;;;6249127;27;21206;-47
2022/04/10 15:46:32;;;;;;;;;;;23.10;35.00;;;;;;6239884;28;19924;-44
2022/04/10 15:49:34;;;;;;;;;;;23.00;34.90;;;;;;6246459;27;19931;-46
2022/04/10 15:52:40;;;;;;;;;;;23.10;35.00;;;;;;6243223;28;19927;-45
2022/04/10 15:55:42;;;;;;;;;;;23.20;35.00;;;;;;6242907;28;20395;-45
2022/04/10 15:58:43;;;;;;;;;;;23.10;35.00;;;;;;6254690;27;20098;-44
2022/04/10 16:01:45;;;;;;;;;;;23.20;35.00;;;;;;6246440;27;20233;-44
2022/04/10 16:04:46;;;;;;;;;;;23.10;35.20;;;;;;6210545;28;21699;-45
2022/04/10 16:07:48;;;;;;;;;;;23.20;35.00;;;;;;6258828;27;19927;-45
2022/04/10 16:10:50;;;;;;;;;;;23.20;35.00;;;;;;6231072;27;19928;-46
2022/04/10 16:13:51;;;;;;;;;;;23.20;35.00;;;;;;6221767;28;20515;-45
2022/04/10 16:16:53;;;;;;;;;;;22.80;34.70;;;;;;6212203;28;20467;-44
2022/04/10 16:19:55;;;;;;;;;;;23.10;34.90;;;;;;6222249;28;20256;-46
2022/04/10 16:22:57;;;;;;;;;;;23.20;34.90;;;;;;6227953;28;20077;-45
2022/04/10 16:25:59;;;;;;;;;;;23.10;34.90;;;;;;6250028;27;20042;-44
2022/04/10 16:32:16;;;;;;;;;;;23.10;34.80;;;;;;6243779;27;20383;-45
2022/04/10 16:35:20;;;;;;;;;;;23.20;34.90;;;;;;6234068;28;20277;-47
2022/04/10 16:38:21;;;;;;;;;;;23.20;34.90;;;;;;6236722;27;19928;-44
2022/04/10 16:41:23;;;;;;;;;;;23.30;35.00;;;;;;6235035;27;20406;-45
2022/04/10 16:44:27;;;;;;;;;;;23.20;34.90;;;;;;6225964;27;19927;-44
2022/04/10 16:47:29;;;;;;;;;;;23.20;34.90;;;;;;6239359;27;19927;-45
2022/04/10 16:50:30;;;;;;;;;;;23.20;34.80;;;;;;6233925;27;19927;-43
2022/04/10 16:53:37;;;;;;;;;;;23.40;34.90;;;;;;6203908;27;20715;-43
2022/04/10 16:56:38;;;;;;;;;;;23.30;34.90;;;;;;6241920;27;20750;-44
2022/04/10 16:59:41;;;;;;;;;;;23.20;34.80;;;;;;6238658;28;19967;-48
2022/04/10 17:02:43;;;;;;;;;;;23.30;34.90;;;;;;6211528;28;20121;-45
2022/04/10 17:05:44;;;;;;;;;;;23.20;34.80;;;;;;6249850;27;21345;-45
2022/04/10 17:08:46;;;;;;;;;;;23.30;34.80;;;;;;6253356;27;19927;-47
2022/04/10 17:11:50;;;;;;;;;;;23.30;34.80;;;;;;6228225;28;20054;-45
2022/04/10 17:14:51;;;;;;;;;;;23.20;34.70;;;;;;6244556;27;19932;-46
2022/04/10 17:17:53;;;;;;;;;;;23.40;34.80;;;;;;6241068;27;19934;-46
2022/04/10 17:20:54;;;;;;;;;;;23.40;34.80;;;;;;6252068;27;19928;-49
2022/04/10 17:23:56;;;;;;;;;;;23.40;34.80;;;;;;6234078;27;19935;-44
2022/04/10 17:26:58;;;;;;;;;;;23.50;34.80;;;;;;6218285;28;20057;-46
2022/04/10 17:30:10;;;;;;;;;;;23.50;34.70;;;;;;6244724;27;19927;-45
2022/04/10 17:33:11;;;;;;;;;;;23.60;34.70;;;;;;6217271;28;19935;-44
2022/04/10 17:36:13;;;;;;;;;;;23.50;34.70;;;;;;6240049;27;19957;-44
2022/04/10 17:39:15;;;;;;;;;;;23.50;34.60;;;;;;6236599;28;20697;-45
2022/04/10 17:42:17;;;;;;;;;;;23.60;34.60;;;;;;6217474;27;20337;-45
2022/04/10 17:45:18;;;;;;;;;;;23.60;34.60;;;;;;6224945;28;19928;-48
2022/04/10 17:48:19;;;;;;;;;;;23.60;34.60;;;;;;6234607;28;20967;-47
2022/04/10 17:51:21;;;;;;;;;;;23.60;34.60;;;;;;6242297;27;19931;-44